Weather observations for the past three days for
Allendale County Airport
Imperial (Metric)
Date Time (edt) Wind (mph) Vis. (mi.) Weather Sky Cond. Temperature (ºF) Relative Humidity Wind Chill (°F) Heat Index (°F) Pressure Precipitation (in)
Air Dwpt 6 hour altimeter (in) sea level (mb) 1 hr 3 hr 6 hr
Max. Min.
09 09:55 Calm 10.00 Overcast BKN007 OVC070 66.2 64.4 94% 29.93 0.0
09 09:35 Calm 10.00 Overcast BKN008 OVC070 64.4 62.6 94% 29.93 0.0
09 09:15 Calm 10.00 Overcast BKN010 OVC013 64.4 62.6 94% 29.93 0.0
09 08:55 Calm 10.00 Overcast BKN012 BKN055 OVC080 64.4 62.6 94% 29.94 0.0
09 08:35 Calm 10.00 Overcast BKN013 BKN080 OVC100 62.6 60.8 94% 29.93 0.0
09 08:15 Calm 10.00 Overcast BKN013 OVC080 60.8 60.8 100% 29.93 0.0
09 07:55 Calm 10.00 Overcast BKN012 OVC090 60.8 60.8 100% 29.94 0.0
09 07:35 Calm 10.00 Overcast OVC090 60.8 60.8 100% 29.94 0.0
09 07:15 Calm 9.00 Mostly Cloudy BKN090 59 59 100% 29.93 0.0
09 06:55 Calm 10.00 A Few Clouds FEW095 59 59 100% 29.92 0.0
09 06:35 Calm 10.00 A Few Clouds FEW100 59 59 100% 29.9 0.0
09 06:15 Calm 10.00 A Few Clouds FEW100 60.8 59 94% 29.9 0.0
09 05:55 Calm 10.00 Fair CLR 60.8 59 94% 29.9 0.0
09 05:35 Calm 10.00 Fair CLR 60.8 59 94% 29.89 0.0
09 05:15 Calm 10.00 A Few Clouds FEW120 60.8 59 94% 29.89 0.0
09 04:55 Calm 10.00 A Few Clouds FEW110 60.8 59 94% 29.9 0.0
09 04:35 Calm 10.00 Fair CLR 60.8 60.8 100% 29.9 0.0
09 03:55 Calm 10.00 Fair CLR 62.6 59 88% 29.9 0.0
09 03:35 Calm 10.00 Fair CLR 62.6 60.8 94% 29.91 0.0
09 03:15 Calm 10.00 Fair CLR 62.6 60.8 94% 29.93 0.0
09 02:55 Calm 10.00 Fair CLR 62.6 60.8 94% 29.92 0.0
09 02:35 Calm 10.00 A Few Clouds FEW013 62.6 60.8 94% 29.92 0.0
09 02:15 Calm 10.00 Mostly Cloudy BKN013 62.6 60.8 94% 29.93 0.0
09 01:55 Calm 10.00 Partly Cloudy SCT012 62.6 60.8 94% 29.92 0.0
09 01:35 Calm 10.00 A Few Clouds FEW015 FEW120 62.6 60.8 94% 29.94 0.0
09 01:15 Calm 10.00 A Few Clouds FEW120 64.4 60.8 88% 29.96 0.0
09 00:55 Calm 10.00 Fair CLR 64.4 59 83% 29.96 0.0
09 00:35 Calm 10.00 Fair CLR 64.4 59 83% 29.96 0.0
09 00:15 Calm 10.00 A Few Clouds FEW120 64.4 59 83% 29.97 0.0
08 23:55 Calm 10.00 A Few Clouds FEW120 64.4 59 83% 29.98 0.0
08 23:35 Calm 10.00 Fair CLR 64.4 59 83% 29.97 0.0
08 23:15 Calm 10.00 Partly Cloudy SCT046 66.2 59 78% 29.97 0.0
08 22:55 Calm 10.00 Mostly Cloudy BKN045 66.2 59 78% 29.98 0.0
08 22:35 Calm 10.00 Fair CLR 66.2 59 78% 29.99 0.0
08 22:15 Calm 10.00 Fair CLR 66.2 59 78% 29.98 0.0
08 21:55 Calm 10.00 Fair CLR 66.2 59 78% 29.99 0.0
08 21:35 Calm 10.00 A Few Clouds FEW120 66.2 57.2 73% 30 0.0
08 21:15 SE 7 10.00 Fair CLR 68 57.2 69% 29.97 0.0
08 20:55 Calm 10.00 Fair CLR 68 57.2 69% 29.97 0.0
08 20:35 Calm 10.00 Fair CLR 68 57.2 69% 29.97 0.0
08 20:15 Calm 10.00 Fair CLR 68 57.2 69% 29.95 0.0
08 19:55 Calm 10.00 Fair CLR 69.8 55.4 60% 29.95 0.0
08 19:35 Calm 10.00 Fair CLR 69.8 57.2 64% 29.95 0.0
08 19:15 Calm 10.00 Fair CLR 71.6 55.4 57% 29.94 0.0
08 18:55 Calm 10.00 Fair CLR 71.6 55.4 57% 29.94 0.0
08 18:35 Calm 10.00 Fair CLR 73.4 51.8 47% 29.94 0.0
08 18:15 Calm 10.00 Fair CLR 73.4 51.8 47% 29.95 0.0
08 17:55 Calm 10.00 Fair CLR 73.4 53.6 50% 29.94 0.0
08 17:35 Calm 10.00 Fair CLR 73.4 51.8 47% 29.94 0.0
08 17:15 Calm 10.00 Fair CLR 73.4 51.8 47% 29.94 0.0
08 16:35 Calm 10.00 Fair CLR 73.4 51.8 47% 29.95 0.0
08 15:55 Calm 10.00 Fair CLR 73.4 51.8 47% 29.95 0.0
08 15:35 Calm 10.00 Fair CLR 73.4 51.8 47% 29.96 0.0
08 15:15 Calm 10.00 Fair CLR 73.4 50 44% 29.98 0.0
08 14:55 Calm 10.00 Fair CLR 71.6 50 47% 29.99 0.0
08 14:35 Calm 10.00 Fair CLR 71.6 50 47% 29.99 0.0
08 14:15 Calm 10.00 Fair CLR 73.4 51.8 47% 30 0.0
08 13:55 Calm 10.00 Fair CLR 71.6 50 47% 30 0.0
08 13:35 Calm 10.00 Fair CLR 71.6 51.8 50% 30.01 0.0
08 13:15 Calm 10.00 Fair CLR 71.6 50 47% 30.01 0.0
08 12:55 Calm 10.00 Fair CLR 71.6 50 47% 30.02 0.0
08 12:35 Calm 10.00 Fair CLR 69.8 50 50% 30.03 0.0
08 12:15 NE 5 10.00 Fair CLR 69.8 50 50% 30.03 0.0
08 11:55 Calm 10.00 Fair CLR 69.8 50 50% 30.04 0.0
08 11:15 Vrbl 5 10.00 Fair CLR 68 50 53% 30.06 0.0
08 10:55 Calm 10.00 Fair CLR 66.2 50 56% 30.06 0.0
08 10:35 NE 6 G 12 10.00 Fair CLR 66.2 50 56% 30.06 0.0
08 10:15 Vrbl 5 10.00 Fair CLR 66.2 51.8 60% 30.06 0.0
08 09:55 Vrbl 6 G 15 10.00 Fair CLR 64.4 50 60% 30.05 0.0
08 09:35 Vrbl 6 G 12 10.00 Fair CLR 64.4 50 60% 30.04 0.0
08 09:15 Calm 10.00 Fair CLR 62.6 53.6 73% 30.04 0.0
08 08:55 Vrbl 5 G 13 10.00 Fair CLR 62.6 53.6 73% 30.03 0.0
08 08:35 Calm 10.00 Fair CLR 60.8 55.4 83% 30.03 0.0
08 08:15 Calm 10.00 Fair CLR 60.8 57.2 88% 30.02 0.0
08 07:55 Calm 10.00 Fair CLR 59 55.4 88% 30.01 0.0
08 07:35 Calm 10.00 Fair CLR 59 55.4 88% 30 0.0
08 07:15 Calm 10.00 Fair CLR 59 57.2 94% 29.99 0.0
08 06:55 Calm 10.00 Fair CLR 59 57.2 94% 29.99 0.0
08 06:35 Calm 10.00 Fair CLR 59 55.4 88% 29.98 0.0
08 06:15 Calm 10.00 Fair CLR 59 55.4 88% 29.96 0.0
08 05:55 Calm 10.00 Fair CLR 60.8 57.2 88% 29.95 0.0
08 05:35 Calm 10.00 Fair CLR 60.8 57.2 88% 29.95 0.0
08 05:15 Calm 10.00 Fair CLR 60.8 55.4 83% 29.94 0.0
08 04:55 Calm 10.00 Fair CLR 60.8 55.4 83% 29.93 0.0
08 04:35 Calm 10.00 Fair CLR 62.6 55.4 77% 29.94 0.0
08 04:15 Calm 10.00 Fair CLR 62.6 57.2 83% 29.93 0.0
08 03:35 Calm 10.00 A Few Clouds FEW041 62.6 57.2 83% 29.93 0.0
08 03:15 Calm 10.00 A Few Clouds FEW041 62.6 57.2 83% 29.93 0.0
08 02:55 Calm 10.00 A Few Clouds FEW042 62.6 59 88% 29.93 0.0
08 02:35 Calm 10.00 A Few Clouds FEW042 62.6 60.8 94% 29.92 0.0
08 02:15 Calm 10.00 Fair CLR 62.6 60.8 94% 29.93 0.0
08 01:55 Calm 10.00 Fair CLR 64.4 59 83% 29.93 0.0
08 01:35 Calm 10.00 Fair CLR 64.4 59 83% 29.92 0.0
08 01:15 Calm 10.00 Fair CLR 66.2 59 78% 29.92 0.0
08 00:55 Calm 10.00 Fair CLR 66.2 59 78% 29.92 0.0
08 00:35 Vrbl 6 10.00 Fair CLR 68 60.8 78% 29.91 0.0
08 00:15 Calm 10.00 Fair CLR 68 64.4 88% 29.91 0.0
07 23:55 Calm 10.00 Fair CLR 68 68 100% 29.91 0.0
07 23:35 Calm 10.00 Fair CLR 69.8 69.8 100% 29.91 0.0
07 23:15 Calm 10.00 Fair CLR 69.8 69.8 100% 29.9 0.0
07 22:55 Calm 10.00 A Few Clouds FEW028 FEW040 69.8 69.8 100% 29.89 0.0
07 22:35 Calm 10.00 Partly Cloudy SCT028 SCT036 SCT042 69.8 69.8 100% 29.88 0.0
07 22:15 Calm 10.00 Mostly Cloudy SCT030 BKN035 BKN040 69.8 69.8 100% 29.87 0.0
07 21:55 Calm 10.00 Mostly Cloudy BKN032 69.8 69.8 100% 29.87 0.0
07 21:35 Calm 10.00 Fair CLR 69.8 69.8 100% 29.86 0.0
07 21:15 Calm 10.00 Fair CLR 69.8 69.8 100% 29.84 0.0
07 20:55 Calm 10.00 Fair CLR 71.6 71.6 100% 29.84 0.0
07 20:35 Calm 10.00 Fair CLR 71.6 71.6 100% 29.83 0.0
07 20:15 Calm 10.00 Fair CLR 71.6 71.6 100% 29.83 0.0
07 19:55 Calm 10.00 A Few Clouds FEW018 FEW022 73.4 71.6 94% 29.82 0.0
07 19:35 Calm 10.00 Partly Cloudy FEW016 SCT022 73.4 71.6 94% 29.82 0.0
07 19:15 Calm 10.00 A Few Clouds FEW047 FEW065 75.2 71.6 89% 75 29.81 0.0
07 18:55 Calm 10.00 Overcast FEW020 SCT030 OVC047 73.4 71.6 94% 29.82 0.0
07 18:35 Calm 10.00 Overcast SCT019 BKN023 OVC033 73.4 71.6 94% 29.82 0.0
07 18:15 Calm 10.00 Overcast SCT026 OVC033 73.4 71.6 94% 29.82 0.0
07 17:55 Calm 10.00 Overcast FEW012 BKN033 OVC038 73.4 71.6 94% 29.82 0.0
07 17:35 Calm 10.00 Overcast SCT009 BKN013 OVC039 73.4 71.6 94% 29.81 0.0
07 17:15 Calm 10.00 Overcast BKN009 OVC014 73.4 71.6 94% 29.81 0.0
07 16:55 Calm 10.00 Overcast FEW009 OVC015 73.4 71.6 94% 29.81 0.0
07 16:35 W 6 8.00 Overcast BKN018 OVC024 73.4 71.6 94% 29.81 0.0
07 16:15 Calm 10.00 Overcast BKN021 OVC028 71.6 71.6 100% 29.81 0.0
07 15:55 Calm 9.00 Overcast BKN025 OVC030 69.8 69.8 100% 29.82 0.0 0.36
07 15:15 Calm 0.50 Heavy Rain Fog BKN003 BKN027 BKN038 68 68 100% 29.83 0.0
07 14:55 Calm 1.50 Heavy Rain Fog/Mist SCT003 SCT027 BKN043 68 68 100% 29.85 0.0 0.99
07 14:15 Vrbl 6 G 12 0.25 Thunderstorm in Vicinity Rain Fog OVC002 68 68 100% 29.84 0.0
07 13:55 Calm 10.00 Thunderstorm in Vicinity BKN033 OVC055 77 66.2 69% 79 29.82 0.0
07 13:35 Vrbl 7 G 18 10.00 Thunderstorm in Vicinity SCT034 BKN055 BKN065 77 66.2 69% 79 29.82 0.0
07 13:15 SW 8 10.00 Mostly Cloudy FEW037 SCT050 BKN065 78.8 66.2 65% 81 29.82 0.0
07 12:55 Vrbl 6 G 14 10.00 Mostly Cloudy SCT050 BKN070 BKN085 77 68 74% 79 29.82 0.0
07 12:35 SW 8 G 20 10.00 Overcast BKN070 BKN080 OVC110 75.2 66.2 74% 77 29.83 0.0
07 12:15 S 8 G 21 10.00 Mostly Cloudy FEW031 BKN110 75.2 66.2 74% 77 29.83 0.0
07 11:55 S 14 G 21 10.00 Mostly Cloudy SCT060 BKN110 75.2 66.2 74% 77 29.83 0.0
07 11:35 S 7 G 13 10.00 Overcast OVC060 73.4 66.2 78% 29.86 0.0
07 11:15 Vrbl 6 G 13 10.00 Partly Cloudy SCT065 SCT075 71.6 64.4 78% 29.87 0.0
07 10:55 Calm 9.00 Mostly Cloudy SCT070 BKN120 69.8 66.2 88% 29.87 0.0
07 10:35 Vrbl 3 10.00 Overcast SCT070 SCT085 OVC120 71.6 66.2 83% 29.88 0.0
07 10:15 Calm 10.00 Partly Cloudy SCT120 71.6 66.2 83% 29.87 0.0
07 09:55 Calm 10.00 Fair CLR 69.8 64.4 83% 29.87 0.0
07 09:15 Vrbl 5 10.00 A Few Clouds FEW120 68 62.6 83% 29.83 0.0
07 08:55 Vrbl 7 G 15 10.00 Fair CLR 69.8 60.8 73% 29.81 0.0
07 08:35 Vrbl 7 G 18 10.00 Fair CLR 68 62.6 83% 29.82 0.0
07 08:15 S 10 10.00 Fair CLR 68 64.4 88% 29.8 0.0
07 07:55 S 8 10.00 Partly Cloudy FEW095 SCT120 68 66.2 94% 29.83 0.0
07 07:35 Calm 10.00 Mostly Cloudy SCT095 BKN120 68 66.2 94% 29.88 0.0
07 06:55 S 7 G 13 10.00 Overcast FEW031 SCT048 OVC070 68 68 100% 29.88 0.0 0.04
07 05:55 E 5 4.00 Light Rain Fog/Mist SCT026 BKN032 BKN040 68 68 100% 29.87 0.0 0.18
07 05:35 Calm 3.00 Rain Fog/Mist BKN025 BKN031 OVC070 68 66.2 94% 29.96 0.0
07 05:15 Vrbl 6 G 16 3.00 Rain Fog/Mist FEW026 SCT055 BKN070 68 66.2 94% 29.96 0.0
07 04:55 Vrbl 5 7.00 Light Rain FEW038 SCT065 OVC120 69.8 66.2 88% 29.94 0.0 0.02
07 04:35 Calm 8.00 Mostly Cloudy FEW047 SCT075 BKN120 69.8 66.2 88% 29.92 0.0
07 04:15 Calm 9.00 Mostly Cloudy FEW055 SCT065 BKN120 71.6 66.2 83% 29.91 0.0
07 03:55 Calm 10.00 Mostly Cloudy FEW065 SCT080 BKN110 73.4 64.4 74% 29.88 0.0
07 03:35 Calm 10.00 Partly Cloudy FEW055 FEW075 SCT095 73.4 64.4 74% 29.88 0.0
07 03:15 Calm 10.00 Fair CLR 73.4 64.4 74% 29.88 0.0
07 02:55 Vrbl 6 10.00 A Few Clouds FEW090 FEW110 73.4 64.4 74% 29.88 0.0
07 02:35 S 8 10.00 Fair CLR 73.4 64.4 74% 29.84 0.0
07 02:15 Calm 10.00 Fair CLR 73.4 64.4 74% 29.88 0.0
07 01:55 Calm 10.00 A Few Clouds FEW120 73.4 64.4 74% 29.9 0.0
07 01:35 Calm 10.00 A Few Clouds FEW110 73.4 64.4 74% 29.91 0.0
07 01:15 Calm 10.00 A Few Clouds FEW080 73.4 64.4 74% 29.92 0.0
07 00:35 Calm 10.00 Partly Cloudy SCT085 SCT120 75.2 66.2 74% 77 29.93 0.0
07 00:15 Calm 10.00 Fair CLR 73.4 66.2 78% 29.93 0.0
06 23:55 Calm 10.00 Fair CLR 75.2 66.2 74% 77 29.93 0.0
06 23:35 Calm 10.00 A Few Clouds FEW075 FEW100 75.2 66.2 74% 77 29.93 0.0
06 23:15 Calm 10.00 Partly Cloudy SCT075 SCT100 75.2 66.2 74% 77 29.93 0.0
06 22:55 Calm 10.00 Fair CLR 75.2 66.2 74% 77 29.92 0.0
06 22:35 S 6 10.00 Fair CLR 75.2 66.2 74% 77 29.91 0.0
06 21:55 S 8 10.00 Fair CLR 77 66.2 69% 79 29.89 0.0
06 21:35 S 9 10.00 Fair CLR 77 66.2 69% 79 29.88 0.0
06 21:15 S 9 10.00 Fair CLR 78.8 66.2 65% 81 29.9 0.0
06 20:55 S 10 10.00 Fair CLR 80.6 66.2 62% 83 29.9 0.0
06 20:35 S 8 G 15 10.00 Partly Cloudy SCT075 SCT095 80.6 66.2 62% 83 29.9 0.0
06 20:15 S 8 10.00 Overcast OVC075 82.4 64.4 55% 84 29.91 0.0
06 19:55 Calm 10.00 Overcast BKN075 OVC090 84.2 60.8 45% 84 29.9 0.0
06 19:35 Calm 10.00 Partly Cloudy FEW075 SCT090 84.2 60.8 45% 84 29.9 0.0
06 19:15 Calm 10.00 A Few Clouds FEW075 86 60.8 43% 86 29.89 0.0
06 18:55 Calm 10.00 Partly Cloudy SCT075 86 60.8 43% 86 29.89 0.0
06 18:35 Vrbl 3 10.00 Fair CLR 86 59 40% 85 29.89 0.0
06 18:15 Vrbl 5 10.00 Fair CLR 87.8 59 38% 87 29.89 0.0
06 17:55 Calm 10.00 Partly Cloudy SCT070 SCT080 87.8 59 38% 87 29.9 0.0
06 17:35 Vrbl 3 G 13 10.00 A Few Clouds FEW070 87.8 59 38% 87 29.9 0.0
06 17:15 S 7 10.00 Fair CLR 87.8 59 38% 87 29.9 0.0
06 16:55 Vrbl 5 G 14 10.00 Fair CLR 87.8 59 38% 87 29.9 0.0
06 16:35 Vrbl 7 G 14 10.00 Fair CLR 87.8 59 38% 87 29.91 0.0
06 16:15 Vrbl 6 G 13 10.00 Fair CLR 87.8 59 38% 87 29.92 0.0
06 15:55 Calm 10.00 Fair CLR 87.8 59 38% 87 29.93 0.0
06 15:35 S 7 10.00 Fair CLR 87.8 59 38% 87 29.94 0.0
06 15:15 Vrbl 6 10.00 Fair CLR 86 59 40% 85 29.94 0.0
06 14:55 Calm 10.00 Fair CLR 86 59 40% 85 29.95 0.0
06 14:35 Vrbl 5 10.00 Fair CLR 84.2 57.2 40% 83 29.96 0.0
06 14:15 Vrbl 5 G 12 10.00 Fair CLR 84.2 59 43% 84 29.97 0.0
06 13:55 Calm 10.00 Fair CLR 82.4 57.2 42% 82 29.98 0.0
06 13:35 Vrbl 5 10.00 Fair CLR 82.4 59 45% 82 30 0.0
06 13:15 Vrbl 5 G 12 10.00 A Few Clouds FEW085 80.6 59 48% 81 30.01 0.0
06 12:55 Vrbl 6 G 13 10.00 Fair CLR 78.8 59 51% 80 30.01 0.0
06 12:35 SW 5 G 12 10.00 Fair CLR 78.8 59 51% 80 30.02 0.0
06 12:15 Vrbl 5 G 12 10.00 Fair CLR 77 59 54% 79 30.03 0.0
06 11:55 Vrbl 5 10.00 Fair CLR 77 59 54% 79 30.02 0.0
06 11:35 Vrbl 5 G 12 10.00 Fair CLR 78.8 59 51% 80 30.02 0.0
06 11:15 S 9 10.00 Fair CLR 75.2 60.8 61% 77 30.02 0.0
06 10:55 Calm 10.00 A Few Clouds FEW080 73.4 60.8 65% 30.02 0.0
06 10:35 Calm 10.00 Mostly Cloudy BKN075 73.4 60.8 65% 30.03 0.0
06 10:15 Calm 10.00 Partly Cloudy SCT075 73.4 60.8 65% 30.03 0.0
Date Time (edt) Wind (mph) Vis. (mi.) Weather Sky Cond. Air Dwpt Max. Min. Relative Humidity Wind Chill (°F) Heat Index (°F) altimeter (in) sea level (mb) 1 hr 3 hr 6 hr
6 hour
Temperature (ºF) Pressure Precipitation (in)